createdAt,value
2022-10-28T00:00:28.028Z,90.49
2022-10-28T00:01:29.232Z,89.88
2022-10-28T00:02:26.743Z,90.08
2022-10-28T00:03:28.900Z,90.39
2022-10-28T00:04:27.374Z,89.98
2022-10-28T00:05:27.521Z,90.08
2022-10-28T00:06:28.674Z,89.78
2022-10-28T00:07:30.016Z,89.98
2022-10-28T00:08:29.252Z,90.28
2022-10-28T00:09:28.732Z,90.19
2022-10-28T00:10:29.037Z,89.88
2022-10-28T00:11:30.245Z,89.98
2022-10-28T00:12:31.536Z,89.78
2022-10-28T00:13:29.933Z,89.37
2022-10-28T00:14:30.233Z,90.19
2022-10-28T00:15:31.396Z,89.58
2022-10-28T00:16:30.881Z,89.88
2022-10-28T00:17:32.162Z,89.78
2022-10-28T00:18:32.385Z,89.88
2022-10-28T00:19:32.804Z,89.68
2022-10-28T00:20:32.165Z,90.28
2022-10-28T00:21:33.376Z,89.78
2022-10-28T00:22:33.536Z,90.28
2022-10-28T00:23:33.025Z,89.98
2022-10-28T00:24:33.340Z,90.19
2022-10-28T00:25:33.636Z,90.49
2022-10-28T00:26:33.953Z,90.28
2022-10-28T00:27:34.283Z,89.88
2022-10-28T00:28:34.594Z,90.19
2022-10-28T00:29:36.761Z,89.98
2022-10-28T00:30:35.150Z,89.78
2022-10-28T00:31:35.446Z,89.88
2022-10-28T00:32:37.629Z,90.19
2022-10-28T00:33:36.008Z,89.58
2022-10-28T00:34:37.798Z,89.88
2022-10-28T00:35:36.548Z,89.98
2022-10-28T00:36:36.867Z,89.48
2022-10-28T00:37:37.178Z,89.88
2022-10-28T00:38:37.482Z,90.23
2022-10-28T00:39:39.673Z,91.03
2022-10-28T00:40:39.850Z,91.03
2022-10-28T00:41:38.359Z,90.88
2022-10-28T00:42:38.670Z,91.89
2022-10-28T00:43:38.987Z,91.38
2022-10-28T00:44:41.162Z,91.49
2022-10-28T00:45:39.548Z,91.38
2022-10-28T00:46:39.843Z,90.83
2022-10-28T00:47:40.261Z,91.08
2022-10-28T00:48:40.445Z,91.69
2022-10-28T00:49:42.628Z,91.83
2022-10-28T00:50:41.006Z,92.24
2022-10-28T00:51:41.307Z,91.93
2022-10-28T00:52:42.427Z,92.24
2022-10-28T00:53:41.935Z,91.93
2022-10-28T00:54:44.124Z,92.44
2022-10-28T00:55:42.503Z,92.33
2022-10-28T00:56:42.817Z,92.54
2022-10-28T00:57:45.066Z,92.94
2022-10-28T00:58:43.459Z,92.13
2022-10-28T00:59:45.627Z,92.49
2022-10-28T01:00:44.007Z,91.28
2022-10-28T01:01:44.395Z,90.47
2022-10-28T01:02:45.619Z,91.08
2022-10-28T01:03:44.813Z,91.99
2022-10-28T01:04:46.996Z,91.58
2022-10-28T01:05:45.379Z,91.58
2022-10-28T01:06:45.685Z,91.58
2022-10-28T01:07:46.024Z,91.02
2022-10-28T01:08:46.332Z,92.03
2022-10-28T01:09:47.510Z,92.33
2022-10-28T01:10:46.877Z,92.33
2022-10-28T01:11:47.183Z,92.84
2022-10-28T01:12:48.444Z,92.24
2022-10-28T01:13:47.804Z,92.24
2022-10-28T01:14:50.000Z,92.24
2022-10-28T01:15:48.361Z,92.94
2022-10-28T01:16:48.658Z,92.94
2022-10-28T01:17:49.951Z,92.94
2022-10-28T01:18:49.308Z,92.84
2022-10-28T01:19:49.614Z,92.19
2022-10-28T01:20:51.769Z,91.89
2022-10-28T01:21:50.151Z,91.78
2022-10-28T01:22:52.772Z,92.19
2022-10-28T01:23:50.802Z,91.28
2022-10-28T01:24:51.111Z,91.38
2022-10-28T01:25:53.291Z,92.13
2022-10-28T01:26:53.478Z,92.33
2022-10-28T01:27:52.896Z,92.54
2022-10-28T01:28:54.235Z,92.54
2022-10-28T01:29:52.489Z,93.24
2022-10-28T01:30:52.787Z,92.84
2022-10-28T01:31:53.093Z,92.90
2022-10-28T01:32:54.391Z,92.29
2022-10-28T01:33:55.557Z,92.69
2022-10-28T01:34:53.949Z,91.58
2022-10-28T01:35:56.106Z,92.40
2022-10-28T01:36:54.538Z,92.40
2022-10-28T01:37:55.217Z,92.29
2022-10-28T01:38:55.141Z,92.19
2022-10-28T01:41:13.060Z,91.38
2022-10-28T01:42:11.570Z,92.19
2022-10-28T01:43:11.877Z,91.99
2022-10-28T01:44:13.118Z,91.18
2022-10-28T01:45:12.497Z,91.18
2022-10-28T01:46:14.860Z,91.49
2022-10-28T01:47:13.099Z,92.03
2022-10-28T01:48:15.262Z,92.84
2022-10-28T01:49:15.440Z,92.84
2022-10-28T01:50:13.963Z,93.19
2022-10-28T01:51:14.259Z,93.55
2022-10-28T01:52:14.569Z,92.24
2022-10-28T01:53:16.746Z,93.24
2022-10-28T01:54:16.919Z,91.99
2022-10-28T01:55:15.427Z,92.09
2022-10-28T01:56:15.740Z,91.58
2022-10-28T01:57:16.044Z,92.24
2022-10-28T01:58:18.202Z,91.89
2022-10-28T01:59:19.335Z,92.03
2022-10-28T02:00:16.978Z,92.44
2022-10-28T02:01:19.292Z,92.44
2022-10-28T02:02:18.523Z,92.33
2022-10-28T02:03:17.895Z,91.93
2022-10-28T02:04:19.143Z,92.28
2022-10-28T02:05:20.371Z,92.58
2022-10-28T02:06:18.755Z,92.58
2022-10-28T02:07:19.874Z,93.08
2022-10-28T02:08:19.365Z,93.19
2022-10-28T02:09:21.542Z,93.08
2022-10-28T02:10:19.925Z,92.58
2022-10-28T02:11:20.232Z,92.99
2022-10-28T02:12:23.888Z,92.88
2022-10-28T02:13:20.799Z,93.49
2022-10-28T02:14:21.996Z,93.19
2022-10-28T02:15:21.358Z,92.74
2022-10-28T02:16:23.542Z,91.77
2022-10-28T02:17:22.751Z,92.28
2022-10-28T02:18:22.246Z,92.48
2022-10-28T02:19:24.430Z,92.63
2022-10-28T02:20:22.809Z,93.13
2022-10-28T02:21:23.118Z,93.19
2022-10-28T02:22:24.321Z,92.79
2022-10-28T02:23:23.683Z,93.08
2022-10-28T02:24:25.877Z,93.33
2022-10-28T02:25:24.275Z,93.49
2022-10-28T02:26:26.455Z,92.79
2022-10-28T02:27:25.653Z,93.23
2022-10-28T02:28:25.158Z,93.19
2022-10-28T02:29:25.463Z,93.39
2022-10-28T02:30:26.622Z,92.88
2022-10-28T02:31:25.994Z,92.72
2022-10-28T02:32:28.259Z,93.23
2022-10-28T02:33:26.633Z,93.33
2022-10-28T02:34:26.948Z,93.94
2022-10-28T02:35:29.104Z,93.43
2022-10-28T02:36:27.491Z,93.54
2022-10-28T02:37:30.642Z,93.84
2022-10-28T02:38:28.044Z,94.14
2022-10-28T02:39:28.330Z,93.74
2022-10-28T02:40:30.512Z,93.54
2022-10-28T02:41:28.890Z,93.23
2022-10-28T02:42:32.545Z,93.63
2022-10-28T02:43:29.453Z,93.94
2022-10-28T02:44:29.770Z,93.29
2022-10-28T02:45:30.080Z,93.59
2022-10-28T02:46:30.402Z,92.99
2022-10-28T02:47:34.044Z,93.49
2022-10-28T02:48:30.969Z,93.54
2022-10-28T02:49:31.333Z,93.29
2022-10-28T02:50:33.521Z,92.99
2022-10-28T02:51:31.784Z,93.43
2022-10-28T02:52:35.464Z,92.93
2022-10-28T02:53:32.369Z,93.54
2022-10-28T02:54:32.675Z,93.43
2022-10-28T02:55:34.854Z,93.74
2022-10-28T02:56:33.236Z,94.04
2022-10-28T02:57:35.554Z,93.63
2022-10-28T02:58:33.813Z,94.19
2022-10-28T02:59:34.117Z,93.78
2022-10-28T03:00:34.424Z,94.09
2022-10-28T03:01:34.852Z,94.39
2022-10-28T03:02:38.164Z,94.19
2022-10-28T03:03:36.255Z,94.29
2022-10-28T03:04:37.317Z,94.70
2022-10-28T03:05:35.937Z,94.70
2022-10-28T03:06:36.256Z,94.49
2022-10-28T03:07:37.529Z,93.88
2022-10-28T03:08:38.762Z,93.88
2022-10-28T03:09:37.143Z,94.09
2022-10-28T03:10:37.455Z,94.29
2022-10-28T03:11:37.761Z,94.09
2022-10-28T03:12:38.138Z,94.09
2022-10-28T03:13:40.271Z,93.88
2022-10-28T03:14:38.649Z,93.88
2022-10-28T03:15:39.969Z,93.88
2022-10-28T03:16:39.217Z,94.09
2022-10-28T03:17:39.550Z,94.09
2022-10-28T03:18:39.883Z,94.09
2022-10-28T03:19:42.040Z,94.19
2022-10-28T03:20:40.429Z,94.09
2022-10-28T03:21:40.736Z,94.19
2022-10-28T03:22:41.855Z,94.09
2022-10-28T03:23:43.267Z,93.48
2022-10-28T03:24:41.662Z,93.38
2022-10-28T03:25:41.958Z,93.48
2022-10-28T03:26:42.277Z,93.38
2022-10-28T03:27:43.560Z,93.68
2022-10-28T03:28:44.801Z,93.58
2022-10-28T03:29:45.761Z,94.13
2022-10-28T03:30:43.486Z,94.03
2022-10-28T03:31:43.793Z,93.83
2022-10-28T03:32:45.129Z,93.99
2022-10-28T03:33:44.370Z,93.93
2022-10-28T03:34:47.505Z,94.19
2022-10-28T03:35:44.904Z,93.88
2022-10-28T03:36:45.220Z,94.13
2022-10-28T03:37:46.532Z,94.03
2022-10-28T03:38:45.773Z,94.23
2022-10-28T03:39:46.098Z,94.34
2022-10-28T03:40:47.295Z,94.34
2022-10-28T03:41:46.673Z,94.34
2022-10-28T03:42:49.844Z,94.54
2022-10-28T03:43:47.252Z,94.74
2022-10-28T03:44:49.433Z,94.74
2022-10-28T03:45:49.606Z,94.64
2022-10-28T03:46:48.117Z,94.98
2022-10-28T03:47:49.441Z,95.14
2022-10-28T03:48:49.601Z,94.84
2022-10-28T03:49:50.903Z,94.74
2022-10-28T03:50:50.185Z,94.94
2022-10-28T03:51:49.542Z,95.04
2022-10-28T03:52:53.261Z,94.94
2022-10-28T03:53:50.168Z,94.94
2022-10-28T03:54:50.473Z,95.14
2022-10-28T03:55:50.780Z,94.39
2022-10-28T03:56:51.088Z,94.23
2022-10-28T03:57:53.633Z,94.23
2022-10-28T03:59:51.901Z,93.99
2022-10-28T04:00:52.328Z,94.23
2022-10-28T04:01:52.589Z,94.09
2022-10-28T04:02:55.936Z,94.43
2022-10-28T04:03:52.977Z,94.43
2022-10-28T04:04:53.286Z,94.43
2022-10-28T04:05:53.596Z,94.39
2022-10-28T04:06:53.903Z,94.19
2022-10-28T04:07:54.257Z,93.88
2022-10-28T04:08:56.442Z,93.99
2022-10-28T04:09:54.701Z,93.88
2022-10-28T04:10:55.012Z,94.23
2022-10-28T04:11:56.383Z,94.34
2022-10-28T04:12:58.488Z,94.13
2022-10-28T04:13:55.884Z,94.34
2022-10-28T04:14:56.194Z,94.34
2022-10-28T04:15:58.375Z,94.13
2022-10-28T04:16:56.759Z,94.34
2022-10-28T04:17:58.088Z,94.34
2022-10-28T04:18:57.324Z,94.23
2022-10-28T04:20:00.538Z,94.43
2022-10-28T04:20:59.718Z,94.54
2022-10-28T04:21:58.230Z,94.74
2022-10-28T04:22:59.855Z,94.34
2022-10-28T04:23:58.759Z,94.13
2022-10-28T04:25:00.945Z,94.13
2022-10-28T04:25:59.329Z,94.03
2022-10-28T04:26:59.645Z,94.13
2022-10-28T04:28:00.966Z,94.09
2022-10-28T04:29:00.207Z,93.38
2022-10-28T04:30:02.400Z,93.48
2022-10-28T04:31:00.771Z,93.38
2022-10-28T04:32:01.076Z,92.87
2022-10-28T04:33:02.276Z,92.87
2022-10-28T04:34:03.630Z,93.07
2022-10-28T04:35:01.881Z,93.18
2022-10-28T04:36:02.204Z,93.07
2022-10-28T04:37:04.379Z,93.18
2022-10-28T04:38:05.569Z,93.27
2022-10-28T04:39:03.092Z,93.42
2022-10-28T04:40:05.278Z,93.62
2022-10-28T04:41:03.658Z,93.93
2022-10-28T04:42:03.974Z,94.03
2022-10-28T04:43:09.663Z,94.34
2022-10-28T04:44:04.590Z,94.34
2022-10-28T04:45:06.749Z,94.34
2022-10-28T04:46:05.134Z,94.43
2022-10-28T04:47:05.441Z,94.64
2022-10-28T04:48:08.576Z,94.54
2022-10-28T04:49:05.975Z,94.34
2022-10-28T04:50:08.155Z,94.58
2022-10-28T04:51:06.544Z,94.98
2022-10-28T04:52:08.793Z,94.74
2022-10-28T04:53:09.026Z,94.89
2022-10-28T04:54:09.218Z,95.04
2022-10-28T04:55:07.736Z,94.74
2022-10-28T04:56:08.061Z,94.74
2022-10-28T04:57:09.185Z,94.43
2022-10-28T04:58:10.622Z,94.54
2022-10-28T04:59:09.020Z,94.34
2022-10-28T05:00:09.333Z,94.54
2022-10-28T05:01:11.570Z,94.43
2022-10-28T05:02:10.008Z,94.64
2022-10-28T05:03:12.094Z,94.74
2022-10-28T05:04:11.337Z,94.74
2022-10-28T05:05:10.883Z,94.74
2022-10-28T05:06:11.157Z,94.84
2022-10-28T05:07:11.459Z,94.94
2022-10-28T05:08:14.608Z,94.84
2022-10-28T05:09:12.002Z,94.84
2022-10-28T05:10:12.318Z,94.39
2022-10-28T05:11:12.624Z,94.23
2022-10-28T05:12:12.936Z,94.54
2022-10-28T05:13:15.109Z,94.74
2022-10-28T05:14:13.488Z,94.84
2022-10-28T05:15:13.795Z,94.43
2022-10-28T05:16:14.108Z,94.84
2022-10-28T05:17:14.408Z,94.74
2022-10-28T05:18:16.590Z,94.70
2022-10-28T05:19:14.969Z,94.29
2022-10-28T05:20:15.281Z,94.64
2022-10-28T05:21:15.590Z,94.59
2022-10-28T05:22:15.892Z,94.29
2022-10-28T05:23:16.195Z,94.09
2022-10-28T05:24:18.440Z,94.39
2022-10-28T05:25:16.817Z,94.29
2022-10-28T05:26:17.133Z,94.39
2022-10-28T05:27:17.439Z,94.19
2022-10-28T05:28:20.591Z,94.29
2022-10-28T05:29:20.846Z,94.34
2022-10-28T05:30:18.321Z,94.64
2022-10-28T05:31:18.619Z,94.74
2022-10-28T05:32:19.912Z,94.74
2022-10-28T05:33:21.110Z,94.74
2022-10-28T05:34:21.399Z,94.64
2022-10-28T05:35:20.855Z,94.54
2022-10-28T05:36:20.229Z,95.25
2022-10-28T05:37:20.532Z,94.54
2022-10-28T05:38:22.713Z,94.23
2022-10-28T05:39:22.873Z,94.43
2022-10-28T05:40:21.383Z,94.23
2022-10-28T05:41:23.323Z,94.34
2022-10-28T05:42:21.934Z,94.29
2022-10-28T05:43:24.111Z,94.13
2022-10-28T05:44:22.549Z,94.23
2022-10-28T05:45:22.778Z,94.74
2022-10-28T05:46:23.093Z,94.54
2022-10-28T05:47:23.274Z,94.43
2022-10-28T05:48:25.539Z,94.64
2022-10-28T05:49:25.632Z,94.94
2022-10-28T05:50:24.274Z,94.84
2022-10-28T05:51:24.566Z,94.64
2022-10-28T05:52:24.895Z,95.25
2022-10-28T05:53:25.207Z,95.04
2022-10-28T05:54:27.394Z,94.74
2022-10-28T05:55:25.786Z,94.34
2022-10-28T05:56:26.115Z,94.43
2022-10-28T05:57:26.429Z,94.34
2022-10-28T05:58:26.748Z,94.34
2022-10-28T05:59:28.921Z,94.64
2022-10-28T06:00:27.330Z,94.84
2022-10-28T06:01:27.679Z,94.94
2022-10-28T06:02:27.987Z,94.74
2022-10-28T06:03:31.039Z,94.84
2022-10-28T06:04:30.489Z,94.64
2022-10-28T06:05:30.675Z,94.74
2022-10-28T06:06:29.196Z,94.94
2022-10-28T06:07:29.533Z,95.14
2022-10-28T06:08:29.875Z,94.84
2022-10-28T06:09:30.209Z,94.74
2022-10-28T06:10:32.395Z,95.04
2022-10-28T06:11:29.275Z,94.84
2022-10-28T06:12:29.673Z,94.64
2022-10-28T06:13:29.845Z,94.94
2022-10-28T06:14:32.028Z,94.94
2022-10-28T06:15:30.433Z,95.45
2022-10-28T06:16:32.624Z,95.14
2022-10-28T06:17:32.806Z,95.14
2022-10-28T06:18:31.340Z,95.14
2022-10-28T06:19:31.710Z,95.35
2022-10-28T06:20:31.929Z,95.14
2022-10-28T06:21:32.268Z,95.25
2022-10-28T06:22:34.445Z,95.35
2022-10-28T06:23:32.862Z,95.04
2022-10-28T06:24:35.041Z,94.94
2022-10-28T06:25:34.301Z,94.49
2022-10-28T06:26:33.582Z,94.39
2022-10-28T06:27:33.922Z,94.54
2022-10-28T06:28:36.108Z,95.04
2022-10-28T06:29:36.280Z,95.04
2022-10-28T06:30:35.605Z,94.84
2022-10-28T06:31:35.137Z,94.94
2022-10-28T06:32:35.373Z,94.94
2022-10-28T06:33:35.592Z,95.04
2022-10-28T06:34:37.826Z,95.50
2022-10-28T06:35:36.216Z,94.49
2022-10-28T06:36:36.447Z,94.49
2022-10-28T06:37:36.680Z,94.29
2022-10-28T06:38:36.910Z,94.39
2022-10-28T06:39:39.136Z,94.39
2022-10-28T06:40:38.232Z,94.39
2022-10-28T06:41:38.651Z,94.70
2022-10-28T06:42:37.943Z,94.70
2022-10-28T06:43:38.179Z,94.59
2022-10-28T06:44:40.360Z,94.35
2022-10-28T06:45:38.669Z,94.35
2022-10-28T06:46:40.419Z,94.04
2022-10-28T06:47:41.718Z,94.55
2022-10-28T06:48:40.927Z,94.14
2022-10-28T06:49:43.104Z,93.94
2022-10-28T06:50:41.408Z,94.09
2022-10-28T06:51:41.631Z,94.49
2022-10-28T06:52:42.003Z,94.24
2022-10-28T06:53:42.208Z,94.29
2022-10-28T06:54:44.402Z,94.09
2022-10-28T06:55:44.654Z,94.14
2022-10-28T06:56:43.083Z,94.04
2022-10-28T06:57:44.278Z,94.04
2022-10-28T06:58:43.563Z,93.74
2022-10-28T06:59:45.735Z,94.04
2022-10-28T07:00:44.910Z,93.54
2022-10-28T07:01:44.357Z,93.33
2022-10-28T07:02:45.352Z,93.08
2022-10-28T07:03:44.921Z,92.99
2022-10-28T07:04:45.151Z,92.88
2022-10-28T07:05:47.340Z,92.99
2022-10-28T07:06:47.559Z,92.58
2022-10-28T07:07:45.895Z,92.68
2022-10-28T07:08:46.133Z,92.79
2022-10-28T07:09:48.308Z,92.48
2022-10-28T07:10:46.609Z,92.68
2022-10-28T07:11:52.319Z,92.54
2022-10-28T07:12:48.088Z,91.93
2022-10-28T07:13:48.992Z,91.28
2022-10-28T07:14:47.609Z,90.94
2022-10-28T07:15:49.789Z,90.63
2022-10-28T07:16:48.209Z,89.72
2022-10-28T07:17:49.497Z,89.78
2022-10-28T07:18:48.786Z,89.83
2022-10-28T07:19:49.008Z,89.28
2022-10-28T07:20:51.192Z,89.37
2022-10-28T07:21:49.606Z,88.97
2022-10-28T07:22:49.940Z,88.63
2022-10-28T07:23:50.171Z,88.32
2022-10-28T07:24:50.557Z,88.12
2022-10-28T07:26:53.078Z,87.48
2022-10-28T07:27:51.575Z,87.78
2022-10-28T07:28:51.600Z,87.18
2022-10-28T07:29:55.235Z,86.83
2022-10-28T07:30:52.063Z,86.77
2022-10-28T07:31:52.396Z,87.34
2022-10-28T07:32:53.062Z,85.92
2022-10-28T07:33:54.918Z,86.73
2022-10-28T07:34:56.560Z,86.87
2022-10-28T07:35:53.479Z,86.97
2022-10-28T07:36:53.719Z,87.18
2022-10-28T07:37:53.933Z,86.77
2022-10-28T07:38:54.287Z,86.83
2022-10-28T07:39:57.921Z,86.22
2022-10-28T07:40:54.742Z,86.13
2022-10-28T07:41:56.897Z,86.22
2022-10-28T07:42:56.562Z,86.13
2022-10-28T07:43:58.826Z,86.53
2022-10-28T07:44:56.744Z,86.43
2022-10-28T07:45:56.024Z,86.97
2022-10-28T07:46:58.178Z,86.97
2022-10-28T07:47:57.432Z,87.27
2022-10-28T07:48:58.765Z,87.18
2022-10-28T07:49:57.996Z,87.58
2022-10-28T07:50:58.160Z,87.27
2022-10-28T07:51:57.559Z,86.73
2022-10-28T07:52:58.027Z,86.77
2022-10-28T07:54:00.115Z,86.97
2022-10-28T07:54:58.540Z,86.53
2022-10-28T07:55:58.764Z,86.93
2022-10-28T07:57:00.139Z,85.88
2022-10-28T07:58:02.254Z,85.28
2022-10-28T07:58:59.686Z,85.68
2022-10-28T08:00:01.881Z,84.83
2022-10-28T08:01:00.210Z,83.69
2022-10-28T08:02:00.524Z,82.84
2022-10-28T08:03:04.034Z,81.70
2022-10-28T08:04:01.923Z,81.93
2022-10-28T08:05:02.164Z,82.20
2022-10-28T08:06:01.434Z,81.49
2022-10-28T08:07:02.490Z,81.70
2022-10-28T08:08:03.891Z,81.49
2022-10-28T08:09:02.198Z,82.20
2022-10-28T08:10:02.421Z,81.99
2022-10-28T08:11:02.661Z,81.49
2022-10-28T08:12:02.895Z,81.90
2022-10-28T08:13:06.540Z,81.90
2022-10-28T08:14:03.361Z,82.10
2022-10-28T08:15:03.770Z,82.14
2022-10-28T08:16:03.840Z,83.69
2022-10-28T08:17:06.027Z,83.25
2022-10-28T08:18:06.244Z,83.28
2022-10-28T08:19:07.714Z,83.89
2022-10-28T08:20:04.862Z,84.33
2022-10-28T08:21:05.094Z,84.74
2022-10-28T08:22:05.333Z,85.48
2022-10-28T08:23:07.437Z,85.58
2022-10-28T08:24:05.872Z,85.24
2022-10-28T08:25:06.114Z,85.14
2022-10-28T08:26:06.351Z,85.03
2022-10-28T08:27:06.592Z,84.83
2022-10-28T08:28:06.871Z,84.94
2022-10-28T08:29:07.110Z,85.54
2022-10-28T08:30:07.339Z,85.14
2022-10-28T08:31:09.394Z,84.83
2022-10-28T08:32:07.952Z,84.43
2022-10-28T08:33:08.300Z,84.74
2022-10-28T08:34:08.552Z,85.14
2022-10-28T08:35:08.723Z,84.63
2022-10-28T08:36:08.952Z,85.44
2022-10-28T08:37:09.259Z,85.30
2022-10-28T08:38:11.368Z,84.15
2022-10-28T08:39:09.798Z,83.31
2022-10-28T08:40:10.035Z,83.11
2022-10-28T08:41:10.279Z,82.16
2022-10-28T08:42:10.516Z,81.72
2022-10-28T08:43:13.690Z,81.21
2022-10-28T08:44:12.896Z,81.62
2022-10-28T08:45:15.648Z,82.06
2022-10-28T08:46:11.607Z,83.00
2022-10-28T08:47:13.790Z,83.40
2022-10-28T08:48:12.300Z,82.86
2022-10-28T08:49:12.367Z,82.22
2022-10-28T08:50:14.541Z,82.26
2022-10-28T08:51:12.852Z,81.85
2022-10-28T08:52:13.101Z,82.66
2022-10-28T08:53:13.583Z,81.92
2022-10-28T08:54:13.615Z,81.52
2022-10-28T08:55:15.789Z,81.76
2022-10-28T08:56:14.162Z,81.62
2022-10-28T08:57:17.892Z,80.88
2022-10-28T08:58:17.990Z,80.47
2022-10-28T08:59:14.923Z,80.13
2022-10-28T09:00:15.186Z,79.53
2022-10-28T09:01:15.517Z,78.89
2022-10-28T09:02:15.659Z,79.43
2022-10-28T09:03:17.866Z,79.09
2022-10-28T09:04:16.166Z,78.85
2022-10-28T09:05:18.341Z,78.35
2022-10-28T09:06:16.640Z,79.05
2022-10-28T09:07:18.820Z,77.41
2022-10-28T09:08:17.156Z,77.91
2022-10-28T09:09:17.372Z,77.65
2022-10-28T09:10:19.568Z,78.15
2022-10-28T09:11:17.866Z,77.67
2022-10-28T09:12:20.042Z,76.54
2022-10-28T09:13:21.680Z,75.20
2022-10-28T09:14:18.618Z,76.14
2022-10-28T09:15:20.802Z,76.04
2022-10-28T09:16:19.111Z,75.60
2022-10-28T09:17:21.295Z,76.24
2022-10-28T09:18:21.482Z,75.80
2022-10-28T09:19:19.918Z,76.80
2022-10-28T09:20:20.289Z,74.53
2022-10-28T09:21:22.363Z,74.50
2022-10-28T09:22:23.476Z,75.26
2022-10-28T09:23:22.004Z,74.43
2022-10-28T09:24:22.212Z,74.87
2022-10-28T09:25:22.372Z,74.66
2022-10-28T09:26:21.813Z,74.33
2022-10-28T09:27:23.992Z,73.93
2022-10-28T09:28:22.316Z,73.83
2022-10-28T09:29:22.545Z,73.79
2022-10-28T09:30:22.789Z,73.53
2022-10-28T09:31:23.020Z,73.86
2022-10-28T09:32:23.261Z,74.37
2022-10-28T09:33:25.444Z,73.93
2022-10-28T09:34:23.756Z,73.79
2022-10-28T09:35:24.950Z,72.69
2022-10-28T09:36:26.174Z,72.02
2022-10-28T09:37:24.488Z,71.49
2022-10-28T09:38:26.675Z,71.99
2022-10-28T09:39:26.928Z,69.86
2022-10-28T09:40:25.298Z,70.62
2022-10-28T09:41:25.532Z,72.32
2022-10-28T09:42:27.732Z,71.72
2022-10-28T09:43:26.024Z,70.56
2022-10-28T09:44:28.216Z,69.56
2022-10-28T09:45:26.522Z,69.99
2022-10-28T09:46:26.765Z,70.72
2022-10-28T09:47:27.006Z,71.09
2022-10-28T09:48:27.245Z,70.19
2022-10-28T09:49:29.418Z,70.46
2022-10-28T09:50:29.611Z,70.39
2022-10-28T09:51:28.024Z,70.83
2022-10-28T09:52:28.268Z,71.33
2022-10-28T09:53:30.521Z,71.56
2022-10-28T09:54:31.698Z,73.03
2022-10-28T09:55:30.890Z,72.86
2022-10-28T09:56:29.340Z,71.92
2022-10-28T09:57:29.636Z,71.33
2022-10-28T09:58:29.884Z,71.96
2022-10-28T09:59:32.052Z,72.22
2022-10-28T10:00:30.409Z,71.92
2022-10-28T10:01:34.135Z,71.89
2022-10-28T10:02:31.035Z,71.46
2022-10-28T10:03:31.242Z,72.76
2022-10-28T10:04:34.376Z,71.66
2022-10-28T10:05:33.609Z,73.12
2022-10-28T10:06:32.194Z,70.89
2022-10-28T10:07:35.328Z,71.62
2022-10-28T10:08:33.608Z,72.16
2022-10-28T10:09:33.039Z,73.66
2022-10-28T10:10:33.282Z,72.16
2022-10-28T10:11:34.385Z,70.65
2022-10-28T10:12:33.803Z,68.16
2022-10-28T10:13:35.980Z,66.57
2022-10-28T10:14:35.255Z,67.73
2022-10-28T10:15:34.547Z,69.82
2022-10-28T10:16:34.797Z,71.15
2022-10-28T10:17:35.085Z,71.59
2022-10-28T10:18:38.222Z,71.19
2022-10-28T10:19:36.621Z,71.59
2022-10-28T10:20:35.937Z,71.92
2022-10-28T10:21:39.037Z,71.75
2022-10-28T10:22:36.484Z,70.46
2022-10-28T10:24:37.011Z,68.46
2022-10-28T10:25:37.248Z,68.46
2022-10-28T10:26:37.839Z,70.06
2022-10-28T10:27:38.695Z,69.53
2022-10-28T10:28:39.951Z,68.30
2022-10-28T10:29:40.130Z,67.63
2022-10-28T10:30:39.431Z,70.92
2022-10-28T10:31:39.822Z,70.06
2022-10-28T10:32:39.201Z,68.70
2022-10-28T10:33:41.352Z,67.37
2022-10-28T10:34:40.582Z,68.16
2022-10-28T10:35:40.743Z,68.53
2022-10-28T10:36:40.155Z,68.03
2022-10-28T10:37:40.472Z,68.70
2022-10-28T10:38:41.736Z,68.33
2022-10-28T10:39:42.894Z,69.76
2022-10-28T10:40:41.335Z,67.67
2022-10-28T10:41:41.575Z,66.91
2022-10-28T10:42:57.355Z,69.39
2022-10-28T10:43:44.936Z,67.93
2022-10-28T10:44:42.384Z,68.03
2022-10-28T10:45:42.619Z,68.03
2022-10-28T10:46:42.865Z,67.54
2022-10-28T10:47:45.041Z,69.36
2022-10-28T10:48:44.227Z,67.37
2022-10-28T10:49:43.643Z,67.30
2022-10-28T10:50:43.886Z,67.96
2022-10-28T10:51:44.133Z,68.99
2022-10-28T10:52:44.377Z,69.53
2022-10-28T10:53:46.557Z,68.13
2022-10-28T10:54:44.869Z,68.23
2022-10-28T10:55:45.103Z,67.43
2022-10-28T10:56:45.382Z,68.43
2022-10-28T10:57:45.988Z,67.73
2022-10-28T10:58:47.782Z,69.06
2022-10-28T10:59:46.215Z,69.59
2022-10-28T11:00:46.450Z,69.66
2022-10-28T11:01:47.739Z,68.90
2022-10-28T11:02:48.296Z,68.20
2022-10-28T11:03:49.201Z,68.43
2022-10-28T11:04:49.353Z,67.44
2022-10-28T11:05:51.106Z,65.02
2022-10-28T11:06:49.135Z,65.64
2022-10-28T11:07:48.430Z,65.98
2022-10-28T11:08:50.613Z,67.77
2022-10-28T11:09:48.933Z,68.46
2022-10-28T11:10:49.172Z,70.86
2022-10-28T11:11:49.413Z,71.15
2022-10-28T11:12:51.725Z,71.29
2022-10-28T11:13:51.771Z,71.89
2022-10-28T11:14:50.203Z,71.69
2022-10-28T11:15:50.451Z,72.19
2022-10-28T11:16:50.695Z,71.59
2022-10-28T11:17:51.163Z,72.19
2022-10-28T11:18:53.107Z,72.22
2022-10-28T11:19:51.421Z,72.56
2022-10-28T11:20:51.665Z,73.36
2022-10-28T11:21:51.903Z,73.39
2022-10-28T11:22:54.387Z,73.86
2022-10-28T11:23:52.437Z,74.02
2022-10-28T11:24:52.676Z,74.02
2022-10-28T11:25:52.920Z,72.99
2022-10-28T11:26:53.159Z,73.12
2022-10-28T11:27:57.531Z,73.92
2022-10-28T11:28:53.707Z,74.43
2022-10-28T11:29:55.890Z,75.56
2022-10-28T11:30:54.308Z,75.33
2022-10-28T11:31:54.430Z,75.13
2022-10-28T11:33:08.259Z,75.33
2022-10-28T11:33:55.900Z,74.79
2022-10-28T11:34:57.088Z,73.99
2022-10-28T11:35:55.517Z,74.83
2022-10-28T11:36:55.759Z,74.43
2022-10-28T11:37:57.924Z,75.37
2022-10-28T11:38:58.155Z,74.66
2022-10-28T11:39:58.338Z,74.87
2022-10-28T11:40:56.771Z,74.43
2022-10-28T11:41:57.022Z,74.03
2022-10-28T11:42:59.196Z,74.76
2022-10-28T11:44:04.780Z,74.83
2022-10-28T11:44:58.825Z,73.63
2022-10-28T11:45:58.115Z,74.56
2022-10-28T11:47:02.484Z,75.80
2022-10-28T11:48:00.456Z,75.40
2022-10-28T11:49:00.798Z,75.80
2022-10-28T11:49:59.272Z,74.93
2022-10-28T11:50:59.489Z,73.75
2022-10-28T11:51:59.717Z,72.13
2022-10-28T11:52:59.957Z,72.76
2022-10-28T11:54:02.135Z,71.83
2022-10-28T11:55:00.445Z,71.69
2022-10-28T11:56:00.683Z,72.72
2022-10-28T11:57:00.930Z,71.83
2022-10-28T11:58:02.110Z,74.13
2022-10-28T11:59:03.410Z,73.56
2022-10-28T12:00:01.707Z,72.13
2022-10-28T12:01:01.963Z,72.39
2022-10-28T12:02:03.248Z,71.79
2022-10-28T12:03:04.502Z,70.49
2022-10-28T12:04:04.576Z,71.45
2022-10-28T12:05:03.070Z,70.03
2022-10-28T12:06:03.313Z,68.96
2022-10-28T12:07:03.563Z,68.56
2022-10-28T12:08:04.781Z,67.96
2022-10-28T12:10:04.345Z,68.79
2022-10-28T12:11:04.593Z,67.27
2022-10-28T12:12:04.829Z,68.16
2022-10-28T12:13:05.077Z,68.23
2022-10-28T12:14:06.277Z,68.33
2022-10-28T12:15:07.501Z,70.19
2022-10-28T12:16:07.703Z,69.73
2022-10-28T12:17:06.125Z,70.26
2022-10-28T12:18:06.558Z,70.16
2022-10-28T12:19:08.543Z,71.12
2022-10-28T12:20:06.863Z,72.36
2022-10-28T12:21:07.141Z,74.02
2022-10-28T12:22:07.381Z,71.36
2022-10-28T12:23:07.628Z,71.48
2022-10-28T12:24:07.872Z,69.86
2022-10-28T12:25:10.163Z,69.06
2022-10-28T12:26:08.353Z,68.96
2022-10-28T12:27:09.871Z,69.69
2022-10-28T12:28:09.098Z,69.86
2022-10-28T12:29:12.520Z,70.09
2022-10-28T12:30:12.263Z,70.16
2022-10-28T12:31:11.434Z,70.72
2022-10-28T12:32:09.987Z,72.76
2022-10-28T12:33:10.229Z,72.02
2022-10-28T12:34:10.469Z,72.42
2022-10-28T12:35:12.648Z,71.79
2022-10-28T12:36:10.953Z,70.56
2022-10-28T12:37:11.210Z,70.42
2022-10-28T12:38:11.447Z,69.32
2022-10-28T12:39:11.688Z,70.16
2022-10-28T12:40:12.870Z,70.36
2022-10-28T12:41:12.169Z,70.59
2022-10-28T12:42:14.360Z,71.03
2022-10-28T12:43:12.691Z,71.99
2022-10-28T12:44:12.925Z,71.33
2022-10-28T12:45:13.174Z,71.92
2022-10-28T12:46:16.294Z,73.56
2022-10-28T12:47:16.486Z,72.86
2022-10-28T12:48:13.917Z,73.33
2022-10-28T12:49:14.154Z,74.66
2022-10-28T12:50:14.388Z,74.96
2022-10-28T12:51:17.527Z,75.46
2022-10-28T12:52:17.725Z,75.26
2022-10-28T12:53:15.161Z,76.14
2022-10-28T12:54:15.393Z,75.50
2022-10-28T12:56:17.954Z,75.76
2022-10-28T12:57:19.467Z,75.67
2022-10-28T12:58:17.486Z,75.50
2022-10-28T12:59:16.787Z,75.96
2022-10-28T13:00:17.022Z,75.26
2022-10-28T13:01:17.431Z,75.06
2022-10-28T13:02:19.994Z,75.50